createdAt,value
2023-03-29T00:01:11.658Z,59.42
2023-03-29T00:04:02.853Z,59.67
2023-03-29T00:06:33.425Z,59.89
2023-03-29T00:09:06.057Z,59.57
2023-03-29T00:11:34.644Z,60.00
2023-03-29T00:14:03.484Z,59.86
2023-03-29T00:16:32.381Z,59.91
2023-03-29T00:19:01.278Z,59.76
2023-03-29T00:21:29.840Z,59.52
2023-03-29T00:23:59.499Z,59.74
2023-03-29T00:26:28.646Z,59.74
2023-03-29T00:28:57.128Z,59.67
2023-03-29T00:31:27.039Z,59.67
2023-03-29T00:33:56.071Z,60.00
2023-03-29T00:36:24.838Z,59.79
2023-03-29T00:38:53.901Z,59.59
2023-03-29T00:41:22.928Z,59.55
2023-03-29T00:44:00.767Z,59.89
2023-03-29T00:46:32.419Z,59.81
2023-03-29T00:49:09.716Z,59.84
2023-03-29T00:51:41.617Z,59.72
2023-03-29T00:54:16.809Z,59.74
2023-03-29T00:56:50.225Z,59.67
2023-03-29T00:59:24.835Z,59.86
2023-03-29T01:02:14.875Z,59.73
2023-03-29T01:04:54.061Z,59.78
2023-03-29T01:07:38.871Z,59.80
2023-03-29T01:10:12.590Z,59.54
2023-03-29T01:12:46.945Z,59.87
2023-03-29T01:15:20.558Z,59.55
2023-03-29T01:17:52.032Z,59.77
2023-03-29T01:20:39.212Z,59.86
2023-03-29T01:23:31.138Z,59.67
2023-03-29T01:25:59.859Z,59.74
2023-03-29T01:28:36.192Z,59.65
2023-03-29T01:31:11.152Z,59.74
2023-03-29T01:33:49.364Z,59.58
2023-03-29T01:36:52.107Z,59.85
2023-03-29T01:39:22.335Z,59.68
2023-03-29T01:42:18.721Z,59.97
2023-03-29T01:44:57.651Z,60.04
2023-03-29T01:47:44.789Z,60.01
2023-03-29T01:50:28.672Z,59.91
2023-03-29T01:53:03.330Z,60.06
2023-03-29T01:55:36.536Z,59.97
2023-03-29T01:58:09.163Z,60.24
2023-03-29T02:00:40.540Z,60.13
2023-03-29T02:03:10.948Z,59.96
2023-03-29T02:05:40.150Z,59.91
2023-03-29T02:08:11.525Z,59.96
2023-03-29T02:10:40.882Z,59.90
2023-03-29T02:13:09.630Z,59.89
2023-03-29T02:15:39.228Z,59.78
2023-03-29T02:18:08.278Z,59.87
2023-03-29T02:20:41.212Z,59.84
2023-03-29T02:23:25.008Z,59.91
2023-03-29T02:25:57.479Z,60.04
2023-03-29T02:28:29.755Z,60.13
2023-03-29T02:31:15.163Z,60.14
2023-03-29T02:34:37.942Z,60.16
2023-03-29T02:37:16.125Z,60.34
2023-03-29T02:39:48.026Z,60.21
2023-03-29T02:42:20.772Z,59.99
2023-03-29T02:44:52.420Z,60.14
2023-03-29T02:47:32.118Z,60.09
2023-03-29T02:50:01.549Z,60.15
2023-03-29T02:52:36.412Z,60.36
2023-03-29T02:55:08.560Z,60.56
2023-03-29T02:57:40.131Z,60.55
2023-03-29T03:00:10.816Z,60.76
2023-03-29T03:02:39.835Z,60.42
2023-03-29T03:05:09.782Z,60.44
2023-03-29T03:07:40.811Z,60.56
2023-03-29T03:10:10.744Z,60.47
2023-03-29T03:12:39.703Z,60.21
2023-03-29T03:15:09.096Z,60.21
2023-03-29T03:17:40.568Z,60.35
2023-03-29T03:20:13.428Z,60.33
2023-03-29T03:22:49.432Z,60.10
2023-03-29T03:25:21.353Z,60.25
2023-03-29T03:27:52.435Z,60.36
2023-03-29T03:30:22.791Z,60.25
2023-03-29T03:33:11.928Z,60.35
2023-03-29T03:36:06.711Z,60.29
2023-03-29T03:38:40.622Z,60.26
2023-03-29T03:41:09.360Z,60.50
2023-03-29T03:43:38.323Z,60.39
2023-03-29T03:46:09.223Z,60.19
2023-03-29T03:48:37.914Z,60.43
2023-03-29T03:51:10.960Z,60.28
2023-03-29T03:53:41.865Z,60.38
2023-03-29T03:56:17.385Z,60.63
2023-03-29T03:59:00.200Z,60.65
2023-03-29T04:01:29.652Z,60.69
2023-03-29T04:04:04.812Z,60.77
2023-03-29T04:06:34.526Z,60.83
2023-03-29T04:09:23.558Z,60.54
2023-03-29T04:12:02.997Z,60.66
2023-03-29T04:14:32.558Z,60.52
2023-03-29T04:17:16.682Z,60.56
2023-03-29T04:19:50.056Z,60.39
2023-03-29T04:22:20.348Z,60.73
2023-03-29T04:24:50.032Z,60.56
2023-03-29T04:27:38.146Z,60.70
2023-03-29T04:30:13.304Z,60.50
2023-03-29T04:33:02.072Z,60.48
2023-03-29T04:35:30.934Z,60.59
2023-03-29T04:37:59.571Z,60.48
2023-03-29T04:40:29.616Z,60.37
2023-03-29T04:43:18.496Z,60.59
2023-03-29T04:45:58.651Z,60.49
2023-03-29T04:48:56.229Z,60.59
2023-03-29T04:51:33.725Z,60.61
2023-03-29T04:54:02.470Z,60.76
2023-03-29T04:56:32.251Z,60.78
2023-03-29T04:59:24.641Z,60.56
2023-03-29T05:01:54.829Z,60.46
2023-03-29T05:04:24.943Z,60.25
2023-03-29T05:07:04.818Z,60.53
2023-03-29T05:09:35.384Z,60.61
2023-03-29T05:12:07.118Z,60.67
2023-03-29T05:14:46.281Z,60.50
2023-03-29T05:17:15.692Z,60.56
2023-03-29T05:19:44.259Z,60.68
2023-03-29T05:22:12.825Z,60.83
2023-03-29T05:24:42.737Z,60.63
2023-03-29T05:27:18.407Z,60.67
2023-03-29T05:29:58.963Z,60.73
2023-03-29T05:33:05.864Z,60.59
2023-03-29T05:35:36.601Z,60.77
2023-03-29T05:38:07.243Z,60.68
2023-03-29T05:40:36.376Z,60.73
2023-03-29T05:43:22.496Z,60.90
2023-03-29T05:45:54.382Z,60.96
2023-03-29T05:48:24.576Z,61.05
2023-03-29T05:50:54.776Z,61.17
2023-03-29T05:53:24.295Z,60.95
2023-03-29T05:55:53.928Z,60.86
2023-03-29T05:58:26.897Z,60.81
2023-03-29T06:00:56.231Z,60.81
2023-03-29T06:03:44.169Z,60.89
2023-03-29T06:06:16.770Z,61.01
2023-03-29T06:08:46.744Z,61.07
2023-03-29T06:11:35.805Z,60.99
2023-03-29T06:14:16.371Z,61.08
2023-03-29T06:16:50.575Z,60.88
2023-03-29T06:19:19.973Z,60.98
2023-03-29T06:21:48.816Z,61.04
2023-03-29T06:24:21.658Z,61.31
2023-03-29T06:26:56.644Z,61.77
2023-03-29T06:29:26.011Z,61.37
2023-03-29T06:31:55.274Z,61.52
2023-03-29T06:34:43.353Z,61.65
2023-03-29T06:37:32.880Z,61.71
2023-03-29T06:40:34.600Z,61.89
2023-03-29T06:43:03.141Z,61.83
2023-03-29T06:45:47.751Z,61.11
2023-03-29T06:48:23.187Z,60.47
2023-03-29T06:50:52.992Z,60.67
2023-03-29T06:53:24.970Z,61.21
2023-03-29T06:55:57.693Z,61.72
2023-03-29T06:58:41.392Z,61.78
2023-03-29T07:01:22.388Z,62.08
2023-03-29T07:03:57.623Z,61.99
2023-03-29T07:06:32.070Z,61.82
2023-03-29T07:09:01.933Z,61.87
2023-03-29T07:11:54.003Z,61.48
2023-03-29T07:14:30.277Z,61.21
2023-03-29T07:16:59.625Z,60.86
2023-03-29T07:19:34.727Z,60.67
2023-03-29T07:22:36.452Z,60.34
2023-03-29T07:25:06.167Z,59.77
2023-03-29T07:27:36.662Z,59.11
2023-03-29T07:30:11.350Z,59.31
2023-03-29T07:32:44.720Z,59.45
2023-03-29T07:35:34.243Z,57.91
2023-03-29T07:38:04.241Z,58.09
2023-03-29T07:40:34.754Z,58.51
2023-03-29T07:43:22.645Z,58.23
2023-03-29T07:45:53.370Z,57.65
2023-03-29T07:48:22.527Z,56.58
2023-03-29T07:50:59.158Z,56.79
2023-03-29T07:53:32.626Z,56.27
2023-03-29T07:56:05.131Z,55.46
2023-03-29T07:58:53.441Z,55.73
2023-03-29T08:01:23.548Z,55.61
2023-03-29T08:04:14.029Z,55.68
2023-03-29T08:07:01.833Z,55.79
2023-03-29T08:09:54.132Z,55.20
2023-03-29T08:12:27.148Z,54.68
2023-03-29T08:14:57.849Z,54.67
2023-03-29T08:17:33.755Z,53.38
2023-03-29T08:20:04.200Z,53.64
2023-03-29T08:22:33.447Z,53.86
2023-03-29T08:25:20.998Z,53.00
2023-03-29T08:27:51.915Z,52.39
2023-03-29T08:30:30.396Z,52.17
2023-03-29T08:32:59.436Z,52.14
2023-03-29T08:35:28.064Z,52.50
2023-03-29T08:38:17.533Z,51.23
2023-03-29T08:40:49.087Z,51.32
2023-03-29T08:43:58.372Z,50.91
2023-03-29T08:46:56.026Z,50.37
2023-03-29T08:49:31.177Z,49.75
2023-03-29T08:52:05.969Z,49.80
2023-03-29T08:54:49.107Z,49.57
2023-03-29T08:57:29.341Z,49.99
2023-03-29T09:00:32.887Z,49.60
2023-03-29T09:03:22.576Z,49.34
2023-03-29T09:06:08.829Z,49.15
2023-03-29T09:08:46.984Z,48.67
2023-03-29T09:11:33.409Z,49.03
2023-03-29T09:14:11.225Z,48.84
2023-03-29T09:16:43.638Z,48.74
2023-03-29T09:19:27.961Z,48.61
2023-03-29T09:22:16.383Z,48.33
2023-03-29T09:25:00.912Z,47.73
2023-03-29T09:27:39.538Z,47.13
2023-03-29T09:30:28.861Z,47.45
2023-03-29T09:33:15.834Z,47.38
2023-03-29T09:36:18.892Z,47.69
2023-03-29T09:42:08.399Z,47.24
2023-03-29T09:44:42.586Z,46.87
2023-03-29T09:47:17.642Z,46.80
2023-03-29T09:49:49.740Z,46.54
2023-03-29T09:52:21.217Z,46.84
2023-03-29T09:54:59.783Z,46.47
2023-03-29T09:57:54.283Z,46.39
2023-03-29T10:00:23.349Z,46.15
2023-03-29T10:02:54.060Z,46.07
2023-03-29T10:05:30.367Z,46.19
2023-03-29T10:08:01.745Z,45.92
2023-03-29T10:10:34.268Z,46.20
2023-03-29T10:13:11.780Z,45.84
2023-03-29T10:15:40.621Z,45.82
2023-03-29T10:18:14.088Z,45.73
2023-03-29T10:20:43.154Z,45.31
2023-03-29T10:23:18.804Z,45.33
2023-03-29T10:25:47.875Z,45.47
2023-03-29T10:28:21.591Z,45.24
2023-03-29T10:30:56.690Z,45.89
2023-03-29T10:33:31.640Z,45.80
2023-03-29T10:36:03.257Z,45.81
2023-03-29T10:38:32.428Z,44.94
2023-03-29T10:41:08.424Z,44.91
2023-03-29T10:43:44.827Z,44.83
2023-03-29T10:46:20.173Z,44.84
2023-03-29T10:48:51.619Z,44.56
2023-03-29T10:51:21.991Z,44.74
2023-03-29T10:53:51.071Z,45.15
2023-03-29T10:56:23.456Z,44.82
2023-03-29T10:59:04.014Z,44.84
2023-03-29T11:01:39.182Z,44.67
2023-03-29T11:04:30.862Z,44.78
2023-03-29T11:07:32.128Z,45.21
2023-03-29T11:10:10.252Z,44.78
2023-03-29T11:12:52.558Z,44.47
2023-03-29T11:15:58.238Z,44.75
2023-03-29T11:19:02.421Z,44.81
2023-03-29T11:21:50.382Z,44.38
2023-03-29T11:24:19.150Z,44.24
2023-03-29T11:27:06.856Z,44.30
2023-03-29T11:30:13.661Z,44.12
2023-03-29T11:32:51.195Z,44.25
2023-03-29T11:35:45.896Z,44.26
2023-03-29T11:38:33.172Z,44.44
2023-03-29T11:41:15.496Z,44.19
2023-03-29T11:43:55.154Z,44.01
2023-03-29T11:46:27.652Z,44.02
2023-03-29T11:49:21.671Z,43.72
2023-03-29T11:52:06.489Z,43.82
2023-03-29T11:54:59.166Z,43.92
2023-03-29T11:57:54.712Z,43.68
2023-03-29T12:00:33.129Z,43.64
2023-03-29T12:03:23.203Z,43.60
2023-03-29T12:06:18.421Z,43.86
2023-03-29T12:09:03.482Z,43.71
2023-03-29T12:11:41.008Z,43.62
2023-03-29T12:14:22.480Z,43.51
2023-03-29T12:17:05.674Z,43.12
2023-03-29T12:19:55.877Z,43.31
2023-03-29T12:22:24.759Z,43.16
2023-03-29T12:24:58.492Z,43.18
2023-03-29T12:27:59.980Z,43.45
2023-03-29T12:30:55.258Z,43.48
2023-03-29T12:33:41.167Z,43.49
2023-03-29T12:36:42.091Z,43.56
2023-03-29T12:39:51.908Z,43.61
2023-03-29T12:43:13.398Z,43.85
2023-03-29T12:46:26.057Z,43.61
2023-03-29T12:49:01.734Z,43.25
2023-03-29T12:51:33.756Z,43.61
2023-03-29T12:54:22.301Z,43.62
2023-03-29T12:56:54.683Z,43.46
2023-03-29T12:59:23.255Z,43.74
2023-03-29T13:02:10.986Z,43.63
2023-03-29T13:04:43.366Z,43.67
2023-03-29T13:07:17.761Z,43.85
2023-03-29T13:09:53.058Z,43.73
2023-03-29T13:12:27.520Z,43.72
2023-03-29T13:15:21.678Z,43.44
2023-03-29T13:17:59.667Z,43.28
2023-03-29T13:20:37.999Z,43.31
2023-03-29T13:23:09.655Z,43.13
2023-03-29T13:26:00.545Z,43.02
2023-03-29T13:28:29.618Z,43.24
2023-03-29T13:31:23.892Z,43.19
2023-03-29T13:34:00.246Z,43.19
2023-03-29T13:36:33.104Z,43.23
2023-03-29T13:39:08.859Z,43.07
2023-03-29T13:41:41.003Z,43.09
2023-03-29T13:44:43.975Z,43.24
2023-03-29T13:47:34.343Z,43.37
2023-03-29T13:50:15.123Z,43.53
2023-03-29T13:52:54.867Z,43.54
2023-03-29T13:55:33.602Z,43.57
2023-03-29T13:58:13.645Z,43.62
2023-03-29T14:00:50.010Z,43.56
2023-03-29T14:03:26.628Z,43.78
2023-03-29T14:06:02.141Z,43.88
2023-03-29T14:08:35.992Z,43.91
2023-03-29T14:11:07.627Z,43.89
2023-03-29T14:13:37.739Z,43.93
2023-03-29T14:16:11.314Z,43.94
2023-03-29T14:18:42.435Z,43.86
2023-03-29T14:21:14.330Z,43.94
2023-03-29T14:23:46.916Z,44.14
2023-03-29T14:26:22.337Z,44.08
2023-03-29T14:28:53.602Z,44.18
2023-03-29T14:31:42.635Z,44.09
2023-03-29T14:34:16.905Z,44.19
2023-03-29T14:36:49.528Z,44.30
2023-03-29T14:39:21.712Z,44.42
2023-03-29T14:41:58.150Z,44.36
2023-03-29T14:44:32.339Z,44.38
2023-03-29T14:47:03.619Z,44.49
2023-03-29T14:49:32.708Z,44.40
2023-03-29T14:52:01.312Z,44.58
2023-03-29T14:54:33.931Z,44.62
2023-03-29T14:57:07.528Z,44.73
2023-03-29T14:59:43.143Z,44.68
2023-03-29T15:02:29.947Z,44.91
2023-03-29T15:05:03.746Z,45.06
2023-03-29T15:07:34.924Z,44.98
2023-03-29T15:10:06.837Z,45.05
2023-03-29T15:12:38.241Z,44.99
2023-03-29T15:15:12.473Z,45.19
2023-03-29T15:17:50.262Z,45.13
2023-03-29T15:20:27.920Z,45.10
2023-03-29T15:23:01.172Z,45.16
2023-03-29T15:25:36.714Z,45.28
2023-03-29T15:28:05.500Z,45.31
2023-03-29T15:30:46.252Z,45.33
2023-03-29T15:33:23.318Z,45.38
2023-03-29T15:35:54.055Z,45.37
2023-03-29T15:38:30.203Z,45.48
2023-03-29T15:41:08.858Z,45.56
2023-03-29T15:43:39.077Z,45.65
2023-03-29T15:46:08.430Z,45.90
2023-03-29T15:48:37.937Z,45.90
2023-03-29T15:51:07.810Z,46.07
2023-03-29T15:53:36.676Z,46.08
2023-03-29T15:56:08.061Z,45.99
2023-03-29T15:58:38.230Z,45.97
2023-03-29T16:01:33.885Z,46.04
2023-03-29T16:04:12.472Z,46.22
2023-03-29T16:06:41.841Z,46.55
2023-03-29T16:09:12.224Z,46.47
2023-03-29T16:11:43.070Z,46.19
2023-03-29T16:14:27.582Z,46.24
2023-03-29T16:17:01.481Z,46.44
2023-03-29T16:19:33.245Z,46.63
2023-03-29T16:22:05.403Z,46.58
2023-03-29T16:24:35.898Z,46.63
2023-03-29T16:27:04.668Z,46.82
2023-03-29T16:29:34.893Z,46.78
2023-03-29T16:32:06.603Z,46.85
2023-03-29T16:34:36.444Z,46.94
2023-03-29T16:37:05.249Z,47.08
2023-03-29T16:39:33.705Z,47.03
2023-03-29T16:42:02.909Z,47.06
2023-03-29T16:44:31.653Z,46.95
2023-03-29T16:47:00.173Z,46.97
2023-03-29T16:49:29.522Z,47.13
2023-03-29T16:52:00.531Z,47.24
2023-03-29T16:54:29.907Z,47.30
2023-03-29T16:56:59.038Z,47.38
2023-03-29T16:59:28.281Z,47.26
2023-03-29T17:01:56.949Z,47.32
2023-03-29T17:04:39.457Z,47.53
2023-03-29T17:07:28.482Z,47.61
2023-03-29T17:10:21.991Z,47.66
2023-03-29T17:13:09.972Z,47.72
2023-03-29T17:16:01.882Z,47.88
2023-03-29T17:18:53.423Z,47.87
2023-03-29T17:21:45.610Z,48.07
2023-03-29T17:24:38.521Z,48.10
2023-03-29T17:27:24.607Z,48.24
2023-03-29T17:30:27.893Z,48.28
2023-03-29T17:33:19.104Z,48.33
2023-03-29T17:36:11.423Z,48.52
2023-03-29T17:39:03.476Z,48.45
2023-03-29T17:41:52.608Z,48.77
2023-03-29T17:44:28.646Z,48.94
2023-03-29T17:46:58.857Z,48.67
2023-03-29T17:49:27.774Z,48.72
2023-03-29T17:51:57.981Z,48.92
2023-03-29T17:54:27.304Z,48.71
2023-03-29T17:56:55.815Z,49.13
2023-03-29T17:59:25.160Z,49.00
2023-03-29T18:01:54.017Z,49.16
2023-03-29T18:04:22.531Z,49.28
2023-03-29T18:06:51.449Z,49.26
2023-03-29T18:09:20.154Z,49.43
2023-03-29T18:11:48.538Z,49.35
2023-03-29T18:14:18.040Z,49.45
2023-03-29T18:16:47.381Z,49.50
2023-03-29T18:19:16.161Z,49.57
2023-03-29T18:21:45.137Z,49.77
2023-03-29T18:24:13.676Z,49.85
2023-03-29T18:26:42.258Z,49.86
2023-03-29T18:29:11.786Z,49.88
2023-03-29T18:31:40.789Z,50.14
2023-03-29T18:34:09.762Z,49.94
2023-03-29T18:36:39.070Z,50.46
2023-03-29T18:39:08.011Z,50.34
2023-03-29T18:41:37.614Z,50.39
2023-03-29T18:44:08.112Z,50.78
2023-03-29T18:46:37.165Z,50.57
2023-03-29T18:49:07.855Z,50.80
2023-03-29T18:51:37.317Z,50.89
2023-03-29T18:54:06.787Z,50.80
2023-03-29T18:56:36.030Z,50.86
2023-03-29T18:59:06.877Z,51.01
2023-03-29T19:01:36.214Z,51.06
2023-03-29T19:04:04.869Z,51.15
2023-03-29T19:06:34.016Z,51.47
2023-03-29T19:09:05.437Z,51.25
2023-03-29T19:11:36.255Z,51.42
2023-03-29T19:14:08.666Z,51.44
2023-03-29T19:16:38.497Z,51.46
2023-03-29T19:19:09.409Z,51.65
2023-03-29T19:21:39.036Z,51.71
2023-03-29T19:24:08.129Z,51.63
2023-03-29T19:26:36.889Z,51.72
2023-03-29T19:29:06.679Z,51.83
2023-03-29T19:31:38.209Z,51.78
2023-03-29T19:34:10.075Z,52.20
2023-03-29T19:36:38.691Z,52.06
2023-03-29T19:39:07.636Z,52.06
2023-03-29T19:41:36.974Z,52.21
2023-03-29T19:44:06.758Z,52.35
2023-03-29T19:46:35.274Z,52.24
2023-03-29T19:49:06.108Z,52.46
2023-03-29T19:51:34.907Z,52.73
2023-03-29T19:54:03.464Z,52.63
2023-03-29T19:56:33.558Z,52.57
2023-03-29T19:59:02.021Z,52.94
2023-03-29T20:01:32.613Z,52.97
2023-03-29T20:04:03.167Z,53.13
2023-03-29T20:06:31.700Z,53.19
2023-03-29T20:09:00.246Z,53.45
2023-03-29T20:11:29.518Z,53.57
2023-03-29T20:13:58.349Z,53.65
2023-03-29T20:16:27.366Z,53.83
2023-03-29T20:18:56.700Z,53.77
2023-03-29T20:21:25.539Z,53.90
2023-03-29T20:23:54.029Z,54.17
2023-03-29T20:26:23.468Z,54.00
2023-03-29T20:28:52.909Z,54.17
2023-03-29T20:31:21.403Z,54.21
2023-03-29T20:33:50.664Z,54.21
2023-03-29T20:36:23.168Z,54.16
2023-03-29T20:38:52.947Z,54.50
2023-03-29T20:41:23.127Z,54.70
2023-03-29T20:43:58.792Z,54.77
2023-03-29T20:46:34.413Z,54.68
2023-03-29T20:49:05.001Z,54.96
2023-03-29T20:51:33.818Z,54.80
2023-03-29T20:54:05.003Z,55.01
2023-03-29T20:56:35.670Z,54.83
2023-03-29T20:59:04.733Z,55.01
2023-03-29T21:01:35.245Z,54.97
2023-03-29T21:04:03.883Z,54.99
2023-03-29T21:06:33.804Z,55.06
2023-03-29T21:09:02.503Z,55.04
2023-03-29T21:11:31.170Z,55.00
2023-03-29T21:13:59.829Z,55.03
2023-03-29T21:16:29.335Z,55.26
2023-03-29T21:18:58.056Z,55.12
2023-03-29T21:21:26.687Z,55.13
2023-03-29T21:23:55.044Z,55.33
2023-03-29T21:26:24.047Z,55.37
2023-03-29T21:28:52.723Z,55.52
2023-03-29T21:31:21.478Z,55.50
2023-03-29T21:33:50.391Z,55.47
2023-03-29T21:36:19.857Z,55.43
2023-03-29T21:38:48.372Z,55.41
2023-03-29T21:41:17.579Z,55.51
2023-03-29T21:43:46.059Z,55.54
2023-03-29T21:46:14.649Z,55.64
2023-03-29T21:48:43.617Z,55.73
2023-03-29T21:51:12.344Z,55.59
2023-03-29T21:53:40.629Z,55.86
2023-03-29T21:56:09.154Z,55.94
2023-03-29T21:58:38.621Z,55.87
2023-03-29T22:01:10.290Z,55.90
2023-03-29T22:03:39.164Z,55.96
2023-03-29T22:06:09.823Z,56.19
2023-03-29T22:08:41.451Z,55.99
2023-03-29T22:11:11.738Z,56.17
2023-03-29T22:13:40.605Z,56.02
2023-03-29T22:16:10.373Z,56.06
2023-03-29T22:18:47.113Z,56.20
2023-03-29T22:21:18.058Z,56.11
2023-03-29T22:23:47.797Z,56.24
2023-03-29T22:26:17.290Z,56.30
2023-03-29T22:28:46.192Z,56.48
2023-03-29T22:31:16.178Z,56.45
2023-03-29T22:33:44.659Z,56.37
2023-03-29T22:36:16.695Z,56.46
2023-03-29T22:38:46.414Z,56.56
2023-03-29T22:41:15.986Z,56.53
2023-03-29T22:43:45.171Z,56.48
2023-03-29T22:46:14.297Z,56.73
2023-03-29T22:48:42.638Z,56.60
2023-03-29T22:51:12.247Z,56.60
2023-03-29T22:53:41.681Z,56.70
2023-03-29T22:56:10.022Z,56.63
2023-03-29T22:58:38.642Z,56.83
2023-03-29T23:01:08.191Z,56.93
2023-03-29T23:03:37.107Z,57.00
2023-03-29T23:06:06.037Z,56.87
2023-03-29T23:08:35.392Z,56.81
2023-03-29T23:11:04.836Z,56.84
2023-03-29T23:13:34.044Z,56.90
2023-03-29T23:16:03.905Z,56.87
2023-03-29T23:18:35.297Z,57.08
2023-03-29T23:21:06.342Z,57.14
2023-03-29T23:23:36.325Z,57.12
2023-03-29T23:26:05.144Z,57.04
2023-03-29T23:28:34.884Z,57.26
2023-03-29T23:31:10.459Z,57.17
2023-03-29T23:33:41.404Z,57.09
2023-03-29T23:36:14.468Z,57.25
2023-03-29T23:38:44.301Z,57.15
2023-03-29T23:41:13.209Z,57.25
2023-03-29T23:43:43.464Z,57.39
2023-03-29T23:46:13.497Z,57.36
2023-03-29T23:48:49.530Z,57.38
2023-03-29T23:51:19.090Z,57.51
2023-03-29T23:53:47.605Z,57.44
2023-03-29T23:56:16.940Z,57.42
2023-03-29T23:58:45.876Z,57.49
